sensor_id;sensor_type;location;lat;lon;timestamp;P1;durP1;ratioP1;P2;durP2;ratioP2
2972;SDS011;1496;51.404;7.232;2023-07-28T00:01:16;4.20;;;3.40;;
2972;SDS011;1496;51.404;7.232;2023-07-28T00:03:41;4.50;;;2.90;;
2972;SDS011;1496;51.404;7.232;2023-07-28T00:06:07;3.13;;;2.83;;
2972;SDS011;1496;51.404;7.232;2023-07-28T00:08:33;6.70;;;2.57;;
2972;SDS011;1496;51.404;7.232;2023-07-28T00:10:58;4.60;;;2.90;;
2972;SDS011;1496;51.404;7.232;2023-07-28T00:13:24;8.13;;;3.53;;
2972;SDS011;1496;51.404;7.232;2023-07-28T00:15:49;4.53;;;4.00;;
2972;SDS011;1496;51.404;7.232;2023-07-28T00:18:15;6.53;;;2.50;;
2972;SDS011;1496;51.404;7.232;2023-07-28T00:20:40;4.47;;;2.93;;
2972;SDS011;1496;51.404;7.232;2023-07-28T00:23:06;3.73;;;3.03;;
2972;SDS011;1496;51.404;7.232;2023-07-28T00:25:32;4.00;;;2.50;;
2972;SDS011;1496;51.404;7.232;2023-07-28T00:27:57;4.27;;;3.07;;
2972;SDS011;1496;51.404;7.232;2023-07-28T00:30:23;5.40;;;2.97;;
2972;SDS011;1496;51.404;7.232;2023-07-28T00:32:48;3.30;;;2.70;;
2972;SDS011;1496;51.404;7.232;2023-07-28T00:35:14;3.60;;;2.70;;
2972;SDS011;1496;51.404;7.232;2023-07-28T00:37:40;7.20;;;2.40;;
2972;SDS011;1496;51.404;7.232;2023-07-28T00:40:06;4.27;;;2.07;;
2972;SDS011;1496;51.404;7.232;2023-07-28T00:42:32;4.10;;;2.63;;
2972;SDS011;1496;51.404;7.232;2023-07-28T00:44:57;4.93;;;2.63;;
2972;SDS011;1496;51.404;7.232;2023-07-28T00:47:23;2.83;;;2.60;;
2972;SDS011;1496;51.404;7.232;2023-07-28T00:49:49;4.70;;;2.90;;
2972;SDS011;1496;51.404;7.232;2023-07-28T00:52:15;3.60;;;2.10;;
2972;SDS011;1496;51.404;7.232;2023-07-28T00:54:40;4.00;;;2.40;;
2972;SDS011;1496;51.404;7.232;2023-07-28T00:57:06;2.73;;;2.13;;
2972;SDS011;1496;51.404;7.232;2023-07-28T00:59:33;3.07;;;2.50;;
2972;SDS011;1496;51.404;7.232;2023-07-28T01:01:59;3.70;;;2.10;;
2972;SDS011;1496;51.404;7.232;2023-07-28T01:04:25;2.53;;;1.80;;
2972;SDS011;1496;51.404;7.232;2023-07-28T01:06:57;2.80;;;1.90;;
2972;SDS011;1496;51.404;7.232;2023-07-28T01:09:34;1.73;;;1.63;;
2972;SDS011;1496;51.404;7.232;2023-07-28T01:12:08;3.20;;;2.23;;
2972;SDS011;1496;51.404;7.232;2023-07-28T01:14:36;2.67;;;1.70;;
2972;SDS011;1496;51.404;7.232;2023-07-28T01:17:02;3.23;;;1.93;;
2972;SDS011;1496;51.404;7.232;2023-07-28T01:19:28;1.97;;;1.67;;
2972;SDS011;1496;51.404;7.232;2023-07-28T01:21:57;3.27;;;2.27;;
2972;SDS011;1496;51.404;7.232;2023-07-28T01:24:55;2.33;;;2.00;;
2972;SDS011;1496;51.404;7.232;2023-07-28T01:27:41;3.40;;;2.10;;
2972;SDS011;1496;51.404;7.232;2023-07-28T01:30:11;2.80;;;2.30;;
2972;SDS011;1496;51.404;7.232;2023-07-28T01:32:37;4.03;;;2.30;;
2972;SDS011;1496;51.404;7.232;2023-07-28T01:35:03;5.20;;;2.23;;
2972;SDS011;1496;51.404;7.232;2023-07-28T01:37:29;4.07;;;2.00;;
2972;SDS011;1496;51.404;7.232;2023-07-28T01:39:55;6.57;;;2.40;;
2972;SDS011;1496;51.404;7.232;2023-07-28T01:42:22;2.57;;;2.33;;
2972;SDS011;1496;51.404;7.232;2023-07-28T01:44:48;3.33;;;2.17;;
2972;SDS011;1496;51.404;7.232;2023-07-28T01:47:14;2.73;;;1.67;;
2972;SDS011;1496;51.404;7.232;2023-07-28T01:49:40;1.77;;;1.67;;
2972;SDS011;1496;51.404;7.232;2023-07-28T01:52:06;4.67;;;1.67;;
2972;SDS011;1496;51.404;7.232;2023-07-28T01:54:31;3.83;;;2.00;;
2972;SDS011;1496;51.404;7.232;2023-07-28T01:56:57;1.50;;;1.30;;
2972;SDS011;1496;51.404;7.232;2023-07-28T01:59:22;1.70;;;1.27;;
2972;SDS011;1496;51.404;7.232;2023-07-28T02:01:48;1.30;;;1.20;;
2972;SDS011;1496;51.404;7.232;2023-07-28T02:04:14;1.20;;;0.90;;
2972;SDS011;1496;51.404;7.232;2023-07-28T02:06:41;1.30;;;0.90;;
2972;SDS011;1496;51.404;7.232;2023-07-28T02:09:06;1.30;;;0.93;;
2972;SDS011;1496;51.404;7.232;2023-07-28T02:11:32;1.87;;;0.90;;
2972;SDS011;1496;51.404;7.232;2023-07-28T02:13:58;1.67;;;1.17;;
2972;SDS011;1496;51.404;7.232;2023-07-28T02:16:23;1.93;;;0.80;;
2972;SDS011;1496;51.404;7.232;2023-07-28T02:18:49;2.30;;;0.70;;
2972;SDS011;1496;51.404;7.232;2023-07-28T02:21:15;7.87;;;0.80;;
2972;SDS011;1496;51.404;7.232;2023-07-28T02:23:40;1.20;;;0.90;;
2972;SDS011;1496;51.404;7.232;2023-07-28T02:26:06;3.20;;;0.70;;
2972;SDS011;1496;51.404;7.232;2023-07-28T02:28:32;1.17;;;0.87;;
2972;SDS011;1496;51.404;7.232;2023-07-28T02:30:57;3.93;;;1.00;;
2972;SDS011;1496;51.404;7.232;2023-07-28T02:33:23;1.77;;;0.93;;
2972;SDS011;1496;51.404;7.232;2023-07-28T02:35:49;2.70;;;1.20;;
2972;SDS011;1496;51.404;7.232;2023-07-28T02:38:14;1.30;;;0.90;;
2972;SDS011;1496;51.404;7.232;2023-07-28T02:40:40;1.10;;;0.70;;
2972;SDS011;1496;51.404;7.232;2023-07-28T02:43:06;1.00;;;0.60;;
2972;SDS011;1496;51.404;7.232;2023-07-28T02:45:31;1.63;;;0.90;;
2972;SDS011;1496;51.404;7.232;2023-07-28T02:47:57;4.97;;;0.80;;
2972;SDS011;1496;51.404;7.232;2023-07-28T02:50:22;1.10;;;0.90;;
2972;SDS011;1496;51.404;7.232;2023-07-28T02:52:48;2.00;;;0.80;;
2972;SDS011;1496;51.404;7.232;2023-07-28T02:55:14;1.20;;;0.83;;
2972;SDS011;1496;51.404;7.232;2023-07-28T02:57:40;3.47;;;0.90;;
2972;SDS011;1496;51.404;7.232;2023-07-28T03:00:06;1.60;;;0.70;;
2972;SDS011;1496;51.404;7.232;2023-07-28T03:02:35;1.10;;;0.73;;
2972;SDS011;1496;51.404;7.232;2023-07-28T03:05:01;1.10;;;0.73;;
2972;SDS011;1496;51.404;7.232;2023-07-28T03:07:33;1.40;;;0.90;;
2972;SDS011;1496;51.404;7.232;2023-07-28T03:10:03;1.00;;;0.60;;
2972;SDS011;1496;51.404;7.232;2023-07-28T03:12:32;1.17;;;0.77;;
2972;SDS011;1496;51.404;7.232;2023-07-28T03:14:57;8.30;;;0.70;;
2972;SDS011;1496;51.404;7.232;2023-07-28T03:17:23;2.00;;;0.80;;
2972;SDS011;1496;51.404;7.232;2023-07-28T03:19:50;1.30;;;0.70;;
2972;SDS011;1496;51.404;7.232;2023-07-28T03:22:15;1.33;;;0.90;;
2972;SDS011;1496;51.404;7.232;2023-07-28T03:24:41;4.03;;;1.00;;
2972;SDS011;1496;51.404;7.232;2023-07-28T03:27:07;1.30;;;0.90;;
2972;SDS011;1496;51.404;7.232;2023-07-28T03:29:33;2.47;;;0.93;;
2972;SDS011;1496;51.404;7.232;2023-07-28T03:31:59;1.70;;;0.80;;
2972;SDS011;1496;51.404;7.232;2023-07-28T03:34:24;2.47;;;1.07;;
2972;SDS011;1496;51.404;7.232;2023-07-28T03:36:51;2.13;;;1.00;;
2972;SDS011;1496;51.404;7.232;2023-07-28T03:39:18;1.50;;;0.77;;
2972;SDS011;1496;51.404;7.232;2023-07-28T03:41:47;2.30;;;0.80;;
2972;SDS011;1496;51.404;7.232;2023-07-28T03:44:12;2.60;;;1.00;;
2972;SDS011;1496;51.404;7.232;2023-07-28T03:46:38;1.50;;;0.70;;
2972;SDS011;1496;51.404;7.232;2023-07-28T03:49:03;2.10;;;0.70;;
2972;SDS011;1496;51.404;7.232;2023-07-28T03:51:29;1.00;;;0.60;;
2972;SDS011;1496;51.404;7.232;2023-07-28T03:53:55;1.10;;;0.70;;
2972;SDS011;1496;51.404;7.232;2023-07-28T03:56:20;1.30;;;0.70;;
2972;SDS011;1496;51.404;7.232;2023-07-28T03:58:46;2.07;;;0.57;;
2972;SDS011;1496;51.404;7.232;2023-07-28T04:01:12;2.33;;;0.60;;
2972;SDS011;1496;51.404;7.232;2023-07-28T04:03:38;1.30;;;0.60;;
2972;SDS011;1496;51.404;7.232;2023-07-28T04:06:09;0.90;;;0.60;;
2972;SDS011;1496;51.404;7.232;2023-07-28T04:08:36;0.83;;;0.50;;
2972;SDS011;1496;51.404;7.232;2023-07-28T04:11:01;4.63;;;0.70;;
2972;SDS011;1496;51.404;7.232;2023-07-28T04:13:27;1.93;;;0.70;;
2972;SDS011;1496;51.404;7.232;2023-07-28T04:15:52;1.00;;;0.60;;
2972;SDS011;1496;51.404;7.232;2023-07-28T04:18:18;1.53;;;0.70;;
2972;SDS011;1496;51.404;7.232;2023-07-28T04:20:44;0.90;;;0.50;;
2972;SDS011;1496;51.404;7.232;2023-07-28T04:23:10;0.93;;;0.67;;
2972;SDS011;1496;51.404;7.232;2023-07-28T04:25:37;2.00;;;0.77;;
2972;SDS011;1496;51.404;7.232;2023-07-28T04:28:03;1.33;;;0.73;;
2972;SDS011;1496;51.404;7.232;2023-07-28T04:30:29;0.90;;;0.50;;
2972;SDS011;1496;51.404;7.232;2023-07-28T04:32:55;1.00;;;0.60;;
2972;SDS011;1496;51.404;7.232;2023-07-28T04:35:25;1.20;;;0.60;;
2972;SDS011;1496;51.404;7.232;2023-07-28T04:38:03;5.13;;;0.77;;
2972;SDS011;1496;51.404;7.232;2023-07-28T04:40:47;1.00;;;0.50;;
2972;SDS011;1496;51.404;7.232;2023-07-28T04:43:16;5.23;;;0.70;;
2972;SDS011;1496;51.404;7.232;2023-07-28T04:45:47;0.90;;;0.53;;
2972;SDS011;1496;51.404;7.232;2023-07-28T04:48:17;0.80;;;0.40;;
2972;SDS011;1496;51.404;7.232;2023-07-28T04:50:44;0.90;;;0.50;;
2972;SDS011;1496;51.404;7.232;2023-07-28T04:53:30;1.73;;;0.83;;
2972;SDS011;1496;51.404;7.232;2023-07-28T04:56:06;2.50;;;0.60;;
2972;SDS011;1496;51.404;7.232;2023-07-28T04:58:33;1.23;;;0.50;;
2972;SDS011;1496;51.404;7.232;2023-07-28T05:01:00;0.90;;;0.50;;
2972;SDS011;1496;51.404;7.232;2023-07-28T05:03:28;1.00;;;0.60;;
2972;SDS011;1496;51.404;7.232;2023-07-28T05:05:57;1.20;;;0.60;;
2972;SDS011;1496;51.404;7.232;2023-07-28T05:08:23;3.27;;;0.70;;
2972;SDS011;1496;51.404;7.232;2023-07-28T05:10:49;1.40;;;0.63;;
2972;SDS011;1496;51.404;7.232;2023-07-28T05:13:15;2.20;;;0.70;;
2972;SDS011;1496;51.404;7.232;2023-07-28T05:15:49;0.90;;;0.50;;
2972;SDS011;1496;51.404;7.232;2023-07-28T05:18:25;1.73;;;0.50;;
2972;SDS011;1496;51.404;7.232;2023-07-28T05:21:11;1.80;;;0.60;;
2972;SDS011;1496;51.404;7.232;2023-07-28T05:23:37;4.00;;;0.70;;
2972;SDS011;1496;51.404;7.232;2023-07-28T05:26:02;1.43;;;0.67;;
2972;SDS011;1496;51.404;7.232;2023-07-28T05:28:28;1.00;;;0.60;;
2972;SDS011;1496;51.404;7.232;2023-07-28T05:31:02;1.37;;;0.70;;
2972;SDS011;1496;51.404;7.232;2023-07-28T05:33:29;2.07;;;1.10;;
2972;SDS011;1496;51.404;7.232;2023-07-28T05:36:02;2.20;;;0.70;;
2972;SDS011;1496;51.404;7.232;2023-07-28T05:38:28;1.60;;;0.80;;
2972;SDS011;1496;51.404;7.232;2023-07-28T05:41:00;1.00;;;0.60;;
2972;SDS011;1496;51.404;7.232;2023-07-28T05:43:31;1.07;;;0.60;;
2972;SDS011;1496;51.404;7.232;2023-07-28T05:45:58;3.70;;;0.97;;
2972;SDS011;1496;51.404;7.232;2023-07-28T05:48:26;0.97;;;0.63;;
2972;SDS011;1496;51.404;7.232;2023-07-28T05:50:51;1.20;;;0.60;;
2972;SDS011;1496;51.404;7.232;2023-07-28T05:53:19;1.83;;;1.00;;
2972;SDS011;1496;51.404;7.232;2023-07-28T05:55:52;1.47;;;0.90;;
2972;SDS011;1496;51.404;7.232;2023-07-28T05:58:18;1.10;;;0.80;;
2972;SDS011;1496;51.404;7.232;2023-07-28T06:00:44;1.20;;;0.80;;
2972;SDS011;1496;51.404;7.232;2023-07-28T06:03:24;1.17;;;0.93;;
2972;SDS011;1496;51.404;7.232;2023-07-28T06:06:02;2.97;;;1.03;;
2972;SDS011;1496;51.404;7.232;2023-07-28T06:08:28;1.20;;;0.80;;
2972;SDS011;1496;51.404;7.232;2023-07-28T06:10:54;3.30;;;1.07;;
2972;SDS011;1496;51.404;7.232;2023-07-28T06:13:20;3.07;;;0.90;;
2972;SDS011;1496;51.404;7.232;2023-07-28T06:15:46;1.37;;;0.87;;
2972;SDS011;1496;51.404;7.232;2023-07-28T06:18:12;1.20;;;0.90;;
2972;SDS011;1496;51.404;7.232;2023-07-28T06:20:41;1.30;;;0.97;;
2972;SDS011;1496;51.404;7.232;2023-07-28T06:23:07;1.50;;;0.90;;
2972;SDS011;1496;51.404;7.232;2023-07-28T06:25:33;1.20;;;0.70;;
2972;SDS011;1496;51.404;7.232;2023-07-28T06:28:04;2.27;;;1.30;;
2972;SDS011;1496;51.404;7.232;2023-07-28T06:30:31;1.20;;;0.90;;
2972;SDS011;1496;51.404;7.232;2023-07-28T06:32:56;1.93;;;1.17;;
2972;SDS011;1496;51.404;7.232;2023-07-28T06:35:22;2.17;;;1.23;;
2972;SDS011;1496;51.404;7.232;2023-07-28T06:37:48;2.47;;;1.57;;
2972;SDS011;1496;51.404;7.232;2023-07-28T06:40:13;2.00;;;1.50;;
2972;SDS011;1496;51.404;7.232;2023-07-28T06:42:39;2.07;;;0.90;;
2972;SDS011;1496;51.404;7.232;2023-07-28T06:45:06;2.67;;;1.13;;
2972;SDS011;1496;51.404;7.232;2023-07-28T06:47:32;1.63;;;1.27;;
2972;SDS011;1496;51.404;7.232;2023-07-28T06:49:57;2.40;;;1.80;;
2972;SDS011;1496;51.404;7.232;2023-07-28T06:52:24;4.27;;;1.40;;
2972;SDS011;1496;51.404;7.232;2023-07-28T06:54:49;3.43;;;1.63;;
2972;SDS011;1496;51.404;7.232;2023-07-28T06:57:15;2.33;;;1.80;;
2972;SDS011;1496;51.404;7.232;2023-07-28T06:59:45;2.70;;;2.10;;
2972;SDS011;1496;51.404;7.232;2023-07-28T07:02:11;2.67;;;2.10;;
2972;SDS011;1496;51.404;7.232;2023-07-28T07:04:37;3.07;;;1.93;;
2972;SDS011;1496;51.404;7.232;2023-07-28T07:07:03;4.27;;;2.87;;
2972;SDS011;1496;51.404;7.232;2023-07-28T07:09:28;5.87;;;2.90;;
2972;SDS011;1496;51.404;7.232;2023-07-28T07:11:54;4.43;;;2.53;;
2972;SDS011;1496;51.404;7.232;2023-07-28T07:14:20;3.40;;;2.40;;
2972;SDS011;1496;51.404;7.232;2023-07-28T07:16:45;3.53;;;2.47;;
2972;SDS011;1496;51.404;7.232;2023-07-28T07:19:11;4.20;;;3.10;;
2972;SDS011;1496;51.404;7.232;2023-07-28T07:21:38;6.73;;;2.43;;
2972;SDS011;1496;51.404;7.232;2023-07-28T07:24:04;4.30;;;3.20;;
2972;SDS011;1496;51.404;7.232;2023-07-28T07:26:30;6.50;;;2.80;;
2972;SDS011;1496;51.404;7.232;2023-07-28T07:28:56;3.30;;;2.53;;
2972;SDS011;1496;51.404;7.232;2023-07-28T07:31:22;4.27;;;3.20;;
2972;SDS011;1496;51.404;7.232;2023-07-28T07:33:48;6.30;;;3.43;;
2972;SDS011;1496;51.404;7.232;2023-07-28T07:36:15;8.17;;;3.70;;
2972;SDS011;1496;51.404;7.232;2023-07-28T07:38:41;5.63;;;3.10;;
2972;SDS011;1496;51.404;7.232;2023-07-28T07:41:07;9.50;;;4.13;;
2972;SDS011;1496;51.404;7.232;2023-07-28T07:43:34;4.03;;;3.63;;
2972;SDS011;1496;51.404;7.232;2023-07-28T07:45:59;5.57;;;3.70;;
2972;SDS011;1496;51.404;7.232;2023-07-28T07:48:25;6.13;;;4.20;;
2972;SDS011;1496;51.404;7.232;2023-07-28T07:50:51;4.73;;;3.57;;
2972;SDS011;1496;51.404;7.232;2023-07-28T07:53:16;4.97;;;3.50;;
2972;SDS011;1496;51.404;7.232;2023-07-28T07:55:42;5.23;;;3.33;;
2972;SDS011;1496;51.404;7.232;2023-07-28T07:58:08;5.20;;;3.30;;
2972;SDS011;1496;51.404;7.232;2023-07-28T08:00:34;5.00;;;2.90;;
2972;SDS011;1496;51.404;7.232;2023-07-28T08:03:01;4.03;;;3.20;;
2972;SDS011;1496;51.404;7.232;2023-07-28T08:05:27;6.83;;;3.63;;
2972;SDS011;1496;51.404;7.232;2023-07-28T08:07:53;4.17;;;2.80;;
2972;SDS011;1496;51.404;7.232;2023-07-28T08:10:20;5.70;;;2.90;;
2972;SDS011;1496;51.404;7.232;2023-07-28T08:12:46;5.40;;;2.97;;
2972;SDS011;1496;51.404;7.232;2023-07-28T08:15:12;3.90;;;2.50;;
2972;SDS011;1496;51.404;7.232;2023-07-28T08:17:38;2.57;;;1.77;;
2972;SDS011;1496;51.404;7.232;2023-07-28T08:20:05;5.70;;;2.27;;
2972;SDS011;1496;51.404;7.232;2023-07-28T08:22:34;3.03;;;1.90;;
2972;SDS011;1496;51.404;7.232;2023-07-28T08:24:59;5.90;;;2.00;;
2972;SDS011;1496;51.404;7.232;2023-07-28T08:27:25;4.00;;;2.07;;
2972;SDS011;1496;51.404;7.232;2023-07-28T08:29:51;5.40;;;1.80;;
2972;SDS011;1496;51.404;7.232;2023-07-28T08:32:16;2.63;;;1.97;;
2972;SDS011;1496;51.404;7.232;2023-07-28T08:34:42;3.60;;;1.40;;
2972;SDS011;1496;51.404;7.232;2023-07-28T08:37:08;4.00;;;2.37;;
2972;SDS011;1496;51.404;7.232;2023-07-28T08:39:34;3.30;;;2.33;;
2972;SDS011;1496;51.404;7.232;2023-07-28T08:42:00;3.27;;;2.20;;
2972;SDS011;1496;51.404;7.232;2023-07-28T08:44:29;5.33;;;2.70;;
2972;SDS011;1496;51.404;7.232;2023-07-28T08:46:56;3.47;;;2.03;;
2972;SDS011;1496;51.404;7.232;2023-07-28T08:49:22;3.20;;;2.00;;
2972;SDS011;1496;51.404;7.232;2023-07-28T08:51:50;3.53;;;2.00;;
2972;SDS011;1496;51.404;7.232;2023-07-28T08:54:17;3.07;;;1.90;;
2972;SDS011;1496;51.404;7.232;2023-07-28T08:56:43;2.40;;;1.60;;
2972;SDS011;1496;51.404;7.232;2023-07-28T08:59:09;1.70;;;1.30;;
2972;SDS011;1496;51.404;7.232;2023-07-28T09:01:41;2.63;;;1.00;;
2972;SDS011;1496;51.404;7.232;2023-07-28T09:04:11;1.93;;;1.20;;
2972;SDS011;1496;51.404;7.232;2023-07-28T09:06:37;2.60;;;1.53;;
2972;SDS011;1496;51.404;7.232;2023-07-28T09:09:06;2.90;;;1.73;;
2972;SDS011;1496;51.404;7.232;2023-07-28T09:11:32;3.00;;;1.10;;
2972;SDS011;1496;51.404;7.232;2023-07-28T09:13:59;3.03;;;1.27;;
2972;SDS011;1496;51.404;7.232;2023-07-28T09:16:25;17.47;;;2.70;;
2972;SDS011;1496;51.404;7.232;2023-07-28T09:19:03;5.87;;;1.23;;
2972;SDS011;1496;51.404;7.232;2023-07-28T09:21:30;2.73;;;1.67;;
2972;SDS011;1496;51.404;7.232;2023-07-28T09:23:59;3.33;;;1.50;;
2972;SDS011;1496;51.404;7.232;2023-07-28T09:29:14;3.53;;;1.80;;
2972;SDS011;1496;51.404;7.232;2023-07-28T09:31:44;2.00;;;1.60;;
2972;SDS011;1496;51.404;7.232;2023-07-28T09:34:11;3.20;;;1.73;;
2972;SDS011;1496;51.404;7.232;2023-07-28T09:36:38;3.00;;;2.10;;
2972;SDS011;1496;51.404;7.232;2023-07-28T09:39:05;2.53;;;1.60;;
2972;SDS011;1496;51.404;7.232;2023-07-28T09:41:37;2.07;;;1.80;;
2972;SDS011;1496;51.404;7.232;2023-07-28T09:44:04;2.10;;;1.80;;
2972;SDS011;1496;51.404;7.232;2023-07-28T09:46:32;3.30;;;1.93;;
2972;SDS011;1496;51.404;7.232;2023-07-28T09:49:01;3.13;;;2.17;;
2972;SDS011;1496;51.404;7.232;2023-07-28T09:51:30;3.90;;;3.00;;
2972;SDS011;1496;51.404;7.232;2023-07-28T09:54:05;3.90;;;2.50;;
2972;SDS011;1496;51.404;7.232;2023-07-28T09:56:36;3.23;;;2.57;;
2972;SDS011;1496;51.404;7.232;2023-07-28T09:59:04;4.60;;;2.70;;
2972;SDS011;1496;51.404;7.232;2023-07-28T10:01:35;4.17;;;3.13;;
2972;SDS011;1496;51.404;7.232;2023-07-28T10:04:01;3.30;;;2.57;;
2972;SDS011;1496;51.404;7.232;2023-07-28T10:06:27;4.00;;;3.03;;
2972;SDS011;1496;51.404;7.232;2023-07-28T10:08:55;4.83;;;2.47;;
2972;SDS011;1496;51.404;7.232;2023-07-28T10:11:20;4.63;;;2.70;;
2972;SDS011;1496;51.404;7.232;2023-07-28T10:13:47;9.33;;;2.83;;
2972;SDS011;1496;51.404;7.232;2023-07-28T10:16:12;3.67;;;2.87;;
2972;SDS011;1496;51.404;7.232;2023-07-28T10:18:51;4.60;;;2.90;;
2972;SDS011;1496;51.404;7.232;2023-07-28T10:21:18;4.17;;;3.53;;
2972;SDS011;1496;51.404;7.232;2023-07-28T10:23:44;4.10;;;3.03;;
2972;SDS011;1496;51.404;7.232;2023-07-28T10:26:18;3.40;;;3.10;;
2972;SDS011;1496;51.404;7.232;2023-07-28T10:29:09;3.43;;;2.77;;
2972;SDS011;1496;51.404;7.232;2023-07-28T10:31:36;3.73;;;3.10;;
2972;SDS011;1496;51.404;7.232;2023-07-28T10:34:02;4.10;;;3.13;;
2972;SDS011;1496;51.404;7.232;2023-07-28T10:39:01;3.83;;;3.37;;
2972;SDS011;1496;51.404;7.232;2023-07-28T10:41:37;3.60;;;2.97;;
2972;SDS011;1496;51.404;7.232;2023-07-28T10:44:03;4.07;;;2.60;;
2972;SDS011;1496;51.404;7.232;2023-07-28T10:46:34;3.27;;;2.87;;
2972;SDS011;1496;51.404;7.232;2023-07-28T10:49:04;3.53;;;2.80;;
2972;SDS011;1496;51.404;7.232;2023-07-28T10:51:30;3.33;;;3.03;;
2972;SDS011;1496;51.404;7.232;2023-07-28T10:53:58;4.23;;;3.53;;
2972;SDS011;1496;51.404;7.232;2023-07-28T10:56:25;2.77;;;2.57;;
2972;SDS011;1496;51.404;7.232;2023-07-28T10:59:01;5.70;;;3.67;;
2972;SDS011;1496;51.404;7.232;2023-07-28T11:01:33;6.10;;;3.20;;
2972;SDS011;1496;51.404;7.232;2023-07-28T11:04:06;3.30;;;2.90;;
2972;SDS011;1496;51.404;7.232;2023-07-28T11:06:35;2.60;;;2.40;;
2972;SDS011;1496;51.404;7.232;2023-07-28T11:09:01;8.73;;;3.27;;
2972;SDS011;1496;51.404;7.232;2023-07-28T11:11:27;4.17;;;2.70;;
2972;SDS011;1496;51.404;7.232;2023-07-28T11:13:53;4.47;;;2.80;;
2972;SDS011;1496;51.404;7.232;2023-07-28T11:16:19;5.97;;;2.80;;
2972;SDS011;1496;51.404;7.232;2023-07-28T11:18:46;2.80;;;2.50;;
2972;SDS011;1496;51.404;7.232;2023-07-28T11:21:11;3.17;;;2.40;;
2972;SDS011;1496;51.404;7.232;2023-07-28T11:23:37;2.60;;;2.13;;
2972;SDS011;1496;51.404;7.232;2023-07-28T11:26:05;4.23;;;2.50;;
2972;SDS011;1496;51.404;7.232;2023-07-28T11:28:32;3.23;;;2.27;;
2972;SDS011;1496;51.404;7.232;2023-07-28T11:30:59;3.83;;;2.50;;
2972;SDS011;1496;51.404;7.232;2023-07-28T11:33:24;3.60;;;2.50;;
2972;SDS011;1496;51.404;7.232;2023-07-28T11:35:50;3.33;;;2.10;;
2972;SDS011;1496;51.404;7.232;2023-07-28T11:38:16;3.00;;;2.37;;
2972;SDS011;1496;51.404;7.232;2023-07-28T11:40:42;2.10;;;1.90;;
2972;SDS011;1496;51.404;7.232;2023-07-28T11:43:09;3.10;;;2.57;;
2972;SDS011;1496;51.404;7.232;2023-07-28T11:45:35;2.70;;;2.13;;
2972;SDS011;1496;51.404;7.232;2023-07-28T11:48:04;1.90;;;1.70;;
2972;SDS011;1496;51.404;7.232;2023-07-28T11:50:35;6.30;;;2.60;;
2972;SDS011;1496;51.404;7.232;2023-07-28T11:53:04;2.27;;;1.60;;
2972;SDS011;1496;51.404;7.232;2023-07-28T11:55:34;2.40;;;2.10;;
2972;SDS011;1496;51.404;7.232;2023-07-28T11:58:01;3.83;;;2.00;;
2972;SDS011;1496;51.404;7.232;2023-07-28T12:00:30;1.70;;;1.60;;
2972;SDS011;1496;51.404;7.232;2023-07-28T12:03:03;5.63;;;1.80;;
2972;SDS011;1496;51.404;7.232;2023-07-28T12:05:30;2.10;;;1.63;;
2972;SDS011;1496;51.404;7.232;2023-07-28T12:07:56;2.87;;;1.50;;
2972;SDS011;1496;51.404;7.232;2023-07-28T12:10:22;2.10;;;1.37;;
2972;SDS011;1496;51.404;7.232;2023-07-28T12:12:49;1.90;;;1.50;;
2972;SDS011;1496;51.404;7.232;2023-07-28T12:15:22;4.60;;;1.80;;
2972;SDS011;1496;51.404;7.232;2023-07-28T12:18:08;1.93;;;1.47;;
2972;SDS011;1496;51.404;7.232;2023-07-28T12:20:44;2.17;;;1.60;;
2972;SDS011;1496;51.404;7.232;2023-07-28T12:23:12;3.77;;;1.47;;
2972;SDS011;1496;51.404;7.232;2023-07-28T12:25:39;2.60;;;1.67;;
2972;SDS011;1496;51.404;7.232;2023-07-28T12:28:05;1.67;;;1.40;;
2972;SDS011;1496;51.404;7.232;2023-07-28T12:30:34;2.53;;;1.63;;
2972;SDS011;1496;51.404;7.232;2023-07-28T12:33:00;1.93;;;1.73;;
2972;SDS011;1496;51.404;7.232;2023-07-28T12:35:26;1.90;;;1.40;;
2972;SDS011;1496;51.404;7.232;2023-07-28T12:37:57;2.20;;;2.00;;
2972;SDS011;1496;51.404;7.232;2023-07-28T12:40:25;2.37;;;1.80;;
2972;SDS011;1496;51.404;7.232;2023-07-28T12:42:52;3.20;;;2.00;;
2972;SDS011;1496;51.404;7.232;2023-07-28T12:45:19;2.90;;;1.80;;
2972;SDS011;1496;51.404;7.232;2023-07-28T12:47:46;3.00;;;1.77;;
2972;SDS011;1496;51.404;7.232;2023-07-28T12:50:11;4.37;;;2.20;;
2972;SDS011;1496;51.404;7.232;2023-07-28T12:52:37;1.80;;;1.43;;
2972;SDS011;1496;51.404;7.232;2023-07-28T12:55:03;4.50;;;1.90;;
2972;SDS011;1496;51.404;7.232;2023-07-28T12:57:30;3.80;;;2.70;;
2972;SDS011;1496;51.404;7.232;2023-07-28T12:59:58;2.37;;;1.87;;
2972;SDS011;1496;51.404;7.232;2023-07-28T13:02:24;2.83;;;2.00;;
2972;SDS011;1496;51.404;7.232;2023-07-28T13:04:50;2.40;;;2.00;;
2972;SDS011;1496;51.404;7.232;2023-07-28T13:07:15;2.60;;;1.63;;
2972;SDS011;1496;51.404;7.232;2023-07-28T13:09:42;7.10;;;2.00;;
2972;SDS011;1496;51.404;7.232;2023-07-28T13:12:08;1.60;;;1.40;;
2972;SDS011;1496;51.404;7.232;2023-07-28T13:14:34;2.10;;;1.57;;
2972;SDS011;1496;51.404;7.232;2023-07-28T13:17:00;2.23;;;1.50;;
2972;SDS011;1496;51.404;7.232;2023-07-28T13:19:26;1.70;;;1.40;;
2972;SDS011;1496;51.404;7.232;2023-07-28T13:21:51;1.83;;;1.63;;
2972;SDS011;1496;51.404;7.232;2023-07-28T13:24:17;1.93;;;1.27;;
2972;SDS011;1496;51.404;7.232;2023-07-28T13:26:44;2.10;;;1.47;;
2972;SDS011;1496;51.404;7.232;2023-07-28T13:29:09;2.50;;;1.30;;
2972;SDS011;1496;51.404;7.232;2023-07-28T13:31:35;4.60;;;1.30;;
2972;SDS011;1496;51.404;7.232;2023-07-28T13:34:00;1.90;;;1.23;;
2972;SDS011;1496;51.404;7.232;2023-07-28T13:36:27;2.17;;;0.97;;
2972;SDS011;1496;51.404;7.232;2023-07-28T13:38:53;1.30;;;0.90;;
2972;SDS011;1496;51.404;7.232;2023-07-28T13:41:19;1.60;;;1.00;;
2972;SDS011;1496;51.404;7.232;2023-07-28T13:43:44;1.40;;;0.93;;
2972;SDS011;1496;51.404;7.232;2023-07-28T13:46:10;3.43;;;0.90;;
2972;SDS011;1496;51.404;7.232;2023-07-28T13:48:36;1.50;;;1.07;;
2972;SDS011;1496;51.404;7.232;2023-07-28T13:51:04;1.60;;;0.83;;
2972;SDS011;1496;51.404;7.232;2023-07-28T13:53:30;2.50;;;1.23;;
2972;SDS011;1496;51.404;7.232;2023-07-28T13:55:55;4.60;;;1.00;;
2972;SDS011;1496;51.404;7.232;2023-07-28T13:58:21;1.73;;;1.00;;
2972;SDS011;1496;51.404;7.232;2023-07-28T14:00:47;1.70;;;1.27;;
2972;SDS011;1496;51.404;7.232;2023-07-28T14:03:12;1.40;;;1.00;;
2972;SDS011;1496;51.404;7.232;2023-07-28T14:05:39;1.67;;;1.00;;
2972;SDS011;1496;51.404;7.232;2023-07-28T14:08:05;2.53;;;1.03;;
2972;SDS011;1496;51.404;7.232;2023-07-28T14:10:31;2.03;;;1.30;;
2972;SDS011;1496;51.404;7.232;2023-07-28T14:12:57;1.50;;;1.20;;
2972;SDS011;1496;51.404;7.232;2023-07-28T14:15:23;2.17;;;1.20;;
2972;SDS011;1496;51.404;7.232;2023-07-28T14:17:49;1.77;;;1.40;;
2972;SDS011;1496;51.404;7.232;2023-07-28T14:20:15;2.77;;;1.30;;
2972;SDS011;1496;51.404;7.232;2023-07-28T14:22:40;5.03;;;1.37;;
2972;SDS011;1496;51.404;7.232;2023-07-28T14:25:06;3.53;;;1.30;;
2972;SDS011;1496;51.404;7.232;2023-07-28T14:27:32;2.23;;;1.10;;
2972;SDS011;1496;51.404;7.232;2023-07-28T14:29:58;2.20;;;1.40;;
2972;SDS011;1496;51.404;7.232;2023-07-28T14:32:23;2.03;;;1.13;;
2972;SDS011;1496;51.404;7.232;2023-07-28T14:34:49;2.63;;;1.60;;
2972;SDS011;1496;51.404;7.232;2023-07-28T14:37:14;1.53;;;1.20;;
2972;SDS011;1496;51.404;7.232;2023-07-28T14:39:40;1.80;;;1.20;;
2972;SDS011;1496;51.404;7.232;2023-07-28T14:42:06;2.70;;;1.20;;
2972;SDS011;1496;51.404;7.232;2023-07-28T14:44:31;2.40;;;1.43;;
2972;SDS011;1496;51.404;7.232;2023-07-28T14:46:57;6.23;;;1.50;;
2972;SDS011;1496;51.404;7.232;2023-07-28T14:49:23;1.50;;;1.10;;
2972;SDS011;1496;51.404;7.232;2023-07-28T14:51:52;1.40;;;1.03;;
2972;SDS011;1496;51.404;7.232;2023-07-28T14:54:18;1.40;;;0.90;;
2972;SDS011;1496;51.404;7.232;2023-07-28T14:56:44;1.80;;;1.10;;
2972;SDS011;1496;51.404;7.232;2023-07-28T14:59:10;1.40;;;0.90;;
2972;SDS011;1496;51.404;7.232;2023-07-28T15:01:35;1.67;;;1.10;;
2972;SDS011;1496;51.404;7.232;2023-07-28T15:04:01;1.20;;;0.83;;
2972;SDS011;1496;51.404;7.232;2023-07-28T15:06:30;1.50;;;0.90;;
2972;SDS011;1496;51.404;7.232;2023-07-28T15:08:56;1.70;;;1.23;;
2972;SDS011;1496;51.404;7.232;2023-07-28T15:11:22;2.67;;;1.20;;
2972;SDS011;1496;51.404;7.232;2023-07-28T15:13:49;3.40;;;1.23;;
2972;SDS011;1496;51.404;7.232;2023-07-28T15:16:15;1.40;;;0.90;;
2972;SDS011;1496;51.404;7.232;2023-07-28T15:18:40;1.67;;;0.87;;
2972;SDS011;1496;51.404;7.232;2023-07-28T15:21:06;4.67;;;1.20;;